sensor_id;sensor_type;location;lat;lon;timestamp;pressure;altitude;pressure_sealevel;temperature;humidity
29879;BME280;16752;53.364;-1.488;2022-10-18T01:37:55;101307.84;;;17.13;43.63
29879;BME280;16752;53.364;-1.488;2022-10-18T01:41:26;101305.44;;;17.09;43.65
29879;BME280;16752;53.364;-1.488;2022-10-18T01:44:45;101309.03;;;17.08;43.57
29879;BME280;16752;53.364;-1.488;2022-10-18T01:54:53;101321.91;;;16.91;43.67
29879;BME280;16752;53.364;-1.488;2022-10-18T01:58:12;101321.16;;;16.89;43.58
29879;BME280;16752;53.364;-1.488;2022-10-18T02:01:31;101317.22;;;16.94;43.77
29879;BME280;16752;53.364;-1.488;2022-10-18T02:10:46;101322.53;;;17.05;43.98
29879;BME280;16752;53.364;-1.488;2022-10-18T03:19:29;101363.41;;;16.90;43.85
29879;BME280;16752;53.364;-1.488;2022-10-18T03:29:52;101373.72;;;16.71;43.77
29879;BME280;16752;53.364;-1.488;2022-10-18T03:40:25;101398.88;;;16.53;44.16
29879;BME280;16752;53.364;-1.488;2022-10-18T03:43:24;101390.88;;;16.41;44.29
29879;BME280;16752;53.364;-1.488;2022-10-18T03:46:58;101396.16;;;16.41;44.10
29879;BME280;16752;53.364;-1.488;2022-10-18T03:50:02;101386.50;;;16.29;44.20
29879;BME280;16752;53.364;-1.488;2022-10-18T04:00:37;101421.88;;;16.03;44.37
29879;BME280;16752;53.364;-1.488;2022-10-18T04:03:49;101419.34;;;16.01;44.38
29879;BME280;16752;53.364;-1.488;2022-10-18T04:06:36;101413.69;;;15.95;44.40
29879;BME280;16752;53.364;-1.488;2022-10-18T04:09:38;101416.44;;;15.93;44.45
29879;BME280;16752;53.364;-1.488;2022-10-18T04:12:47;101411.03;;;15.95;44.35
29879;BME280;16752;53.364;-1.488;2022-10-18T04:15:36;101407.88;;;15.89;44.84
29879;BME280;16752;53.364;-1.488;2022-10-18T04:18:52;101406.69;;;15.94;44.68
29879;BME280;16752;53.364;-1.488;2022-10-18T04:24:31;101414.88;;;15.78;45.00
29879;BME280;16752;53.364;-1.488;2022-10-18T04:27:11;101412.38;;;16.00;45.01
29879;BME280;16752;53.364;-1.488;2022-10-18T04:29:51;101413.22;;;16.01;44.87
29879;BME280;16752;53.364;-1.488;2022-10-18T04:32:28;101419.97;;;16.05;44.67
29879;BME280;16752;53.364;-1.488;2022-10-18T04:35:04;101420.94;;;16.04;44.61
29879;BME280;16752;53.364;-1.488;2022-10-18T04:37:41;101425.72;;;15.99;44.76
29879;BME280;16752;53.364;-1.488;2022-10-18T04:40:18;101417.28;;;15.94;44.70
29879;BME280;16752;53.364;-1.488;2022-10-18T04:42:50;101420.66;;;15.96;44.53
29879;BME280;16752;53.364;-1.488;2022-10-18T04:45:22;101416.44;;;15.93;44.47
29879;BME280;16752;53.364;-1.488;2022-10-18T04:47:54;101416.53;;;15.92;44.48
29879;BME280;16752;53.364;-1.488;2022-10-18T04:50:36;101417.72;;;15.87;44.48
29879;BME280;16752;53.364;-1.488;2022-10-18T04:53:23;101430.81;;;15.76;44.51
29879;BME280;16752;53.364;-1.488;2022-10-18T04:55:53;101434.66;;;15.72;44.63
29879;BME280;16752;53.364;-1.488;2022-10-18T04:58:42;101425.38;;;15.67;44.53
29879;BME280;16752;53.364;-1.488;2022-10-18T05:01:27;101441.44;;;15.64;44.72
29879;BME280;16752;53.364;-1.488;2022-10-18T05:03:59;101438.47;;;15.68;44.52
29879;BME280;16752;53.364;-1.488;2022-10-18T05:06:35;101440.16;;;15.69;44.55
29879;BME280;16752;53.364;-1.488;2022-10-18T05:09:12;101438.47;;;15.68;44.64
29879;BME280;16752;53.364;-1.488;2022-10-18T05:11:54;101448.50;;;15.63;44.59
29879;BME280;16752;53.364;-1.488;2022-10-18T05:14:31;101451.16;;;15.63;44.51
29879;BME280;16752;53.364;-1.488;2022-10-18T05:17:06;101449.47;;;15.62;44.38
29879;BME280;16752;53.364;-1.488;2022-10-18T05:19:48;101433.19;;;15.68;44.35
29879;BME280;16752;53.364;-1.488;2022-10-18T05:22:20;101439.28;;;15.56;44.47
29879;BME280;16752;53.364;-1.488;2022-10-18T05:24:52;101449.31;;;15.51;44.53
29879;BME280;16752;53.364;-1.488;2022-10-18T05:27:28;101456.94;;;15.43;44.49
29879;BME280;16752;53.364;-1.488;2022-10-18T05:30:05;101451.75;;;15.28;44.95
29879;BME280;16752;53.364;-1.488;2022-10-18T05:32:38;101453.31;;;15.31;44.60
29879;BME280;16752;53.364;-1.488;2022-10-18T05:35:09;101457.84;;;15.29;44.73
29879;BME280;16752;53.364;-1.488;2022-10-18T05:37:54;101467.16;;;15.35;44.78
29879;BME280;16752;53.364;-1.488;2022-10-18T05:40:26;101464.19;;;15.26;44.90
29879;BME280;16752;53.364;-1.488;2022-10-18T05:42:58;101466.91;;;15.00;45.48
29879;BME280;16752;53.364;-1.488;2022-10-18T05:45:35;101466.59;;;15.04;45.33
29879;BME280;16752;53.364;-1.488;2022-10-18T05:48:06;101471.81;;;15.18;45.18
29879;BME280;16752;53.364;-1.488;2022-10-18T05:50:52;101454.34;;;15.16;45.08
29879;BME280;16752;53.364;-1.488;2022-10-18T05:53:35;101453.50;;;15.15;45.04
29879;BME280;16752;53.364;-1.488;2022-10-18T05:56:06;101454.16;;;15.19;44.90
29879;BME280;16752;53.364;-1.488;2022-10-18T05:58:40;101451.06;;;15.12;45.07
29879;BME280;16752;53.364;-1.488;2022-10-18T06:01:17;101456.88;;;15.17;45.08
29879;BME280;16752;53.364;-1.488;2022-10-18T06:03:53;101455.41;;;15.13;45.48
29879;BME280;16752;53.364;-1.488;2022-10-18T06:06:24;101461.75;;;15.11;45.37
29879;BME280;16752;53.364;-1.488;2022-10-18T06:08:57;101467.13;;;15.09;45.73
29879;BME280;16752;53.364;-1.488;2022-10-18T06:11:29;101460.69;;;15.13;45.88
29879;BME280;16752;53.364;-1.488;2022-10-18T06:14:02;101459.84;;;15.00;46.56
29879;BME280;16752;53.364;-1.488;2022-10-18T06:16:34;101467.78;;;15.25;45.73
29879;BME280;16752;53.364;-1.488;2022-10-18T06:19:06;101479.63;;;15.33;45.92
29879;BME280;16752;53.364;-1.488;2022-10-18T06:21:36;101483.63;;;15.25;45.81
29879;BME280;16752;53.364;-1.488;2022-10-18T06:24:08;101471.91;;;15.29;46.07
29879;BME280;16752;53.364;-1.488;2022-10-18T06:26:40;101464.06;;;15.15;46.15
29879;BME280;16752;53.364;-1.488;2022-10-18T06:29:13;101464.41;;;15.23;46.03
29879;BME280;16752;53.364;-1.488;2022-10-18T06:31:53;101485.84;;;15.32;45.68
29879;BME280;16752;53.364;-1.488;2022-10-18T06:34:25;101488.06;;;15.25;45.63
29879;BME280;16752;53.364;-1.488;2022-10-18T06:36:57;101491.34;;;15.28;45.52
29879;BME280;16752;53.364;-1.488;2022-10-18T06:39:30;101498.88;;;15.47;45.00
29879;BME280;16752;53.364;-1.488;2022-10-18T06:42:01;101488.94;;;15.51;44.82
29879;BME280;16752;53.364;-1.488;2022-10-18T06:44:33;101483.00;;;15.35;45.35
29879;BME280;16752;53.364;-1.488;2022-10-18T06:47:06;101482.59;;;15.53;44.73
29879;BME280;16752;53.364;-1.488;2022-10-18T06:49:38;101487.88;;;15.53;44.71
29879;BME280;16752;53.364;-1.488;2022-10-18T06:52:10;101495.91;;;15.52;44.66
29879;BME280;16752;53.364;-1.488;2022-10-18T06:54:41;101502.66;;;15.56;44.62
29879;BME280;16752;53.364;-1.488;2022-10-18T06:57:13;101502.13;;;15.51;44.71
29879;BME280;16752;53.364;-1.488;2022-10-18T06:59:45;101500.97;;;15.55;44.57
29879;BME280;16752;53.364;-1.488;2022-10-18T07:02:15;101490.09;;;15.47;44.64
29879;BME280;16752;53.364;-1.488;2022-10-18T07:04:41;101499.16;;;15.55;44.70
29879;BME280;16752;53.364;-1.488;2022-10-18T07:07:07;101509.00;;;15.41;45.01
29879;BME280;16752;53.364;-1.488;2022-10-18T07:09:33;101514.91;;;15.57;44.66
29879;BME280;16752;53.364;-1.488;2022-10-18T07:11:59;101513.78;;;15.61;44.70
29879;BME280;16752;53.364;-1.488;2022-10-18T07:14:25;101521.63;;;15.63;44.67
29879;BME280;16752;53.364;-1.488;2022-10-18T07:16:51;101528.97;;;15.57;44.71
29879;BME280;16752;53.364;-1.488;2022-10-18T07:19:16;101526.97;;;15.61;44.43
29879;BME280;16752;53.364;-1.488;2022-10-18T07:21:47;101537.66;;;15.59;44.64
29879;BME280;16752;53.364;-1.488;2022-10-18T07:24:12;101549.41;;;15.68;44.61
29879;BME280;16752;53.364;-1.488;2022-10-18T07:26:38;101550.78;;;15.74;44.56
29879;BME280;16752;53.364;-1.488;2022-10-18T07:29:05;101561.25;;;15.75;44.76
29879;BME280;16752;53.364;-1.488;2022-10-18T07:31:31;101566.94;;;15.69;44.89
29879;BME280;16752;53.364;-1.488;2022-10-18T07:33:57;101573.00;;;15.84;44.76
29879;BME280;16752;53.364;-1.488;2022-10-18T07:36:23;101571.19;;;15.84;44.97
29879;BME280;16752;53.364;-1.488;2022-10-18T07:38:50;101572.25;;;15.95;44.72
29879;BME280;16752;53.364;-1.488;2022-10-18T07:41:16;101586.44;;;16.06;44.94
29879;BME280;16752;53.364;-1.488;2022-10-18T07:43:42;101590.00;;;16.18;45.08
29879;BME280;16752;53.364;-1.488;2022-10-18T07:46:10;101595.81;;;16.23;44.88
29879;BME280;16752;53.364;-1.488;2022-10-18T07:48:36;101590.84;;;16.31;44.91
29879;BME280;16752;53.364;-1.488;2022-10-18T07:51:02;101598.97;;;16.41;44.89
29879;BME280;16752;53.364;-1.488;2022-10-18T07:53:27;101608.81;;;16.52;44.93
29879;BME280;16752;53.364;-1.488;2022-10-18T07:56:04;101612.06;;;16.68;44.81
29879;BME280;16752;53.364;-1.488;2022-10-18T07:58:30;101609.28;;;16.82;44.83
29879;BME280;16752;53.364;-1.488;2022-10-18T08:00:56;101596.97;;;16.94;44.70
29879;BME280;16752;53.364;-1.488;2022-10-18T08:03:22;101616.06;;;17.10;44.52
29879;BME280;16752;53.364;-1.488;2022-10-18T08:05:51;101616.25;;;17.20;44.32
29879;BME280;16752;53.364;-1.488;2022-10-18T08:08:17;101624.84;;;17.34;44.05
29879;BME280;16752;53.364;-1.488;2022-10-18T08:10:42;101628.50;;;17.45;44.14
29879;BME280;16752;53.364;-1.488;2022-10-18T08:13:08;101641.47;;;17.60;44.11
29879;BME280;16752;53.364;-1.488;2022-10-18T08:15:35;101642.00;;;17.77;44.01
29879;BME280;16752;53.364;-1.488;2022-10-18T08:18:01;101648.16;;;17.53;44.19
29879;BME280;16752;53.364;-1.488;2022-10-18T08:20:27;101649.19;;;17.63;44.55
29879;BME280;16752;53.364;-1.488;2022-10-18T08:22:52;101651.63;;;18.01;43.79
29879;BME280;16752;53.364;-1.488;2022-10-18T08:25:20;101650.81;;;18.35;43.58
29879;BME280;16752;53.364;-1.488;2022-10-18T08:27:46;101659.88;;;18.54;43.10
29879;BME280;16752;53.364;-1.488;2022-10-18T08:30:11;101656.28;;;18.67;43.09
29879;BME280;16752;53.364;-1.488;2022-10-18T08:32:39;101661.91;;;18.84;42.59
29879;BME280;16752;53.364;-1.488;2022-10-18T08:35:08;101672.28;;;18.99;42.57
29879;BME280;16752;53.364;-1.488;2022-10-18T08:37:45;101674.06;;;19.20;42.36
29879;BME280;16752;53.364;-1.488;2022-10-18T08:40:28;101674.06;;;19.20;42.08
29879;BME280;16752;53.364;-1.488;2022-10-18T08:43:21;101675.34;;;19.37;41.60
